Station: Mandurah  

  Atmospheric Gas Attenuation - ITU Rec 676-11   ----------------- dB/100km -----------------
Date Time Temp RH % AH g/m3 Dew Point Wind Direction Speed kph Gust kph Barometer mB Rainfall Since 9am 24GHz 47GHz 76GHz 122GHz 134GHz 241GHz
04/09 01:00 17 70 10.13 11.5 30 44 1013.5 0.8 22.7 27.4 44.3 116.5 114.3 394.7
04/09 00:50 17.2 71 10.4 11.9 32 48 1013.6 0.8 23.3 27.8 45.3 119.1 117.7 406.3
04/09 00:40 17.2 68 9.96 11.2 33 48 1013.6 0.8 22.3 27.1 43.5 114.4 111.8 385.8
04/09 00:30 16.9 73 10.5 12 28 44 1013.5 0.8 23.5 28.1 45.9 120.7 119.5 412.6
04/09 00:20 17 75 10.85 12.5 30 39 1013.4 0.8 24.2 28.6 47.2 124.4 124.1 428.7
04/09 00:10 16.5 77 10.81 12.5 28 46 1013.5 0.8 24.2 28.7 47.4 124.7 124.3 429.5
04/09 00:00 16.6 82 11.58 13.5 28 43 1013.6 0.8 25.8 30.0 50.6 133.3 134.9 466.4
03/09 23:50 16.3 84 11.65 13.6 39 46 1013.7 0.8 26.0 30.2 51.1 134.6 136.4 471.7
03/09 23:40 15.9 87 11.78 13.7 28 39 1013.9 0.8 26.3 30.6 51.9 136.8 139.0 480.7
03/09 23:30 15.5 87 11.5 13.3 26 37 1014 0.8 25.7 30.3 51.0 134.3 135.8 469.3
03/09 23:20 15.2 85 11.03 12.7 26 43 1014.2 0.8 24.7 29.6 49.2 129.4 129.6 447.8
03/09 23:10 15.2 81 10.51 12 32 56 1014.4 0.6 23.6 28.7 47.0 123.5 122.4 422.5
03/09 23:00 17.1 69 10.04 11.4 35 46 1014.2 0.6 22.5 27.3 43.9 115.4 113.1 390.2
03/09 22:50 17.4 69 10.23 11.7 32 43 1014.2 0.6 22.9 27.5 44.5 117.0 115.1 397.6
03/09 22:40 17.4 69 10.23 11.7 32 43 1014.2 0.6 22.9 27.5 44.5 117.0 115.1 397.6
03/09 22:30 17.4 69 10.23 11.7 32 41 1014.4 0.6 22.9 27.5 44.5 117.1 115.2 397.6
03/09 22:20 17.3 66 9.72 10.9 28 37 1014.6 0.6 21.8 26.7 42.5 111.8 108.6 374.6
03/09 22:10 17.3 65 9.58 10.7 30 37 1014.7 0.6 21.5 26.5 42.0 110.3 106.8 368.2
03/09 22:00 17.4 67 9.93 11.2 28 35 1014.7 0.6 22.2 27.0 43.3 113.9 111.2 383.8
03/09 21:50 17.3 62 9.13 10 22 33 1014.8 0.6 20.5 25.8 40.2 105.6 101.0 347.9
03/09 21:40 17.3 63 9.28 10.2 28 39 1014.9 0.6 20.9 26.0 40.8 107.1 102.9 354.7
03/09 21:30 17.1 69 10.04 11.4 28 39 1015 0.6 22.5 27.3 43.9 115.5 113.1 390.5
03/09 21:20 16.9 69 9.92 11.2 24 33 1015.2 0.6 22.2 27.2 43.6 114.5 111.9 385.9
03/09 21:10 16.6 67 9.46 10.5 32 48 1015.3 0.6 21.3 26.5 41.9 110.0 106.2 366.2
03/09 21:00 17.2 64 9.37 10.3 26 39 1015.2 0.6 21.1 26.2 41.2 108.3 104.2 359.3
03/09 20:50 17 68 9.84 11.1 20 30 1015.3 0.6 22.1 27.0 43.2 113.5 110.7 381.8
03/09 20:40 17.1 66 9.61 10.7 22 33 1015.4 0.6 21.6 26.6 42.2 111.0 107.5 370.7
03/09 20:30 17 62 8.97 9.7 26 37 1015.7 0.6 20.2 25.7 39.8 104.4 99.4 342.2
03/09 20:20 16.9 65 9.35 10.3 28 44 1015.7 0.6 21.0 26.3 41.3 108.5 104.4 359.9
03/09 20:10 17 64 9.26 10.1 28 43 1015.7 0.6 20.8 26.1 40.9 107.4 103.1 355.3
03/09 20:00 16.9 67 9.64 10.7 32 44 1015.7 0.6 21.6 26.8 42.5 111.6 108.2 373.1
03/09 19:50 17.1 64 9.32 10.2 33 44 1015.6 0.6 21.0 26.2 41.1 107.9 103.7 357.6
03/09 19:40 17.1 63 9.17 10 35 44 1015.6 0.6 20.6 25.9 40.5 106.3 101.8 350.8
03/09 19:30 17 67 9.69 10.8 30 41 1015.5 0.6 21.7 26.8 42.6 112.0 108.7 374.9
03/09 19:20 16.8 63 9.01 9.7 30 43 1015.4 0.6 20.3 25.8 40.0 105.0 100.1 344.8
03/09 19:10 16.9 66 9.49 10.5 30 43 1015.4 0.6 21.3 26.5 41.9 110.0 106.2 366.2
03/09 19:00 16.9 68 9.78 11 30 44 1015.2 0.6 21.9 27.0 43.0 113.0 110.0 379.5
03/09 18:50 17.3 73 10.75 12.4 32 43 1015.1 0.6 24.0 28.4 46.7 123.0 122.4 422.8
03/09 18:40 17.1 72 10.48 12 32 44 1015 0.6 23.4 28.0 45.7 120.3 119.0 411.1
03/09 18:30 16.9 75 10.79 12.4 28 39 1015 0.6 24.1 28.6 47.1 124.0 123.6 426.9
03/09 18:20 16.7 81 11.51 13.4 24 32 1015 0.6 25.7 29.9 50.3 132.5 133.9 462.9
03/09 18:10 16.3 81 11.24 13 24 33 1014.8 0.6 25.1 29.6 49.4 130.1 130.8 451.9
03/09 18:00 16.7 80 11.37 13.2 24 33 1014.8 0.6 25.4 29.7 49.7 130.9 131.9 456.0
03/09 17:50 16.9 78 11.22 13 24 35 1014.7 0.6 25.0 29.3 48.9 128.8 129.5 447.5
03/09 17:40 16.7 79 11.23 13 28 37 1014.6 0.6 25.1 29.4 49.1 129.2 129.9 449.1
03/09 17:30 16.6 83 11.72 13.7 24 33 1014.7 0.6 26.1 30.3 51.3 135.0 137.0 473.7
03/09 17:20 16.4 83 11.58 13.5 24 33 1014.7 0.6 25.8 30.1 50.8 133.8 135.4 468.0
03/09 17:10 16 85 11.58 13.5 24 37 1014.7 0.6 25.8 30.3 51.0 134.4 136.1 470.5
03/09 17:00 15.5 85 11.24 13 30 46 1014.7 0.6 25.1 29.8 49.9 131.4 132.1 456.6
03/09 16:50 17.1 78 11.35 13.2 26 41 1014.8 0.4 25.3 29.5 49.4 130.0 130.9 452.6
03/09 16:40 16.8 78 11.15 12.9 24 32 1014.8 0.4 24.9 29.2 48.7 128.2 128.7 444.7
03/09 16:30 17 76 11 12.7 28 35 1014.8 0.4 24.5 28.9 47.9 126.2 126.3 436.3
03/09 16:20 17.3 74 10.9 12.6 28 37 1014.7 0.4 24.3 28.7 47.3 124.6 124.4 429.8
03/09 16:10 17.2 74 10.84 12.5 24 30 1014.7 0.4 24.2 28.6 47.1 124.1 123.7 427.5
03/09 16:00 17.3 73 10.75 12.4 24 32 1014.7 0.4 24.0 28.4 46.7 122.9 122.3 422.7
03/09 15:50 17.2 73 10.69 12.3 19 30 1014.8 0.4 23.9 28.3 46.5 122.4 121.7 420.4
03/09 15:40 17.5 73 10.88 12.6 22 30 1015.1 0.4 24.3 28.6 47.2 124.1 123.8 427.9
03/09 15:30 17.4 73 10.82 12.5 20 28 1015.2 0.4 24.1 28.5 47.0 123.6 123.2 425.6
03/09 15:20 17.4 73 10.82 12.5 20 32 1015.2 0.4 24.1 28.5 47.0 123.6 123.2 425.6
03/09 15:10 17.5 74 11.03 12.8 22 32 1015.3 0.4 24.6 28.8 47.8 125.8 125.9 435.1
03/09 15:00 17.4 69 10.23 11.7 20 28 1015.4 0.4 22.9 27.5 44.6 117.2 115.3 397.9
03/09 14:50 17.7 70 10.56 12.2 20 28 1015.5 0.4 23.6 28.0 45.7 120.3 119.2 411.8
03/09 14:40 17.7 69 10.41 11.9 17 26 1015.6 0.4 23.2 27.8 45.1 118.7 117.2 404.9
03/09 14:30 17.6 69 10.35 11.9 20 30 1015.7 0.4 23.1 27.7 44.9 118.2 116.6 402.6
03/09 14:20 17.7 68 10.26 11.7 22 32 1015.8 0.4 22.9 27.5 44.5 117.1 115.3 397.9
03/09 14:10 17.6 66 9.9 11.2 24 33 1015.8 0.4 22.2 27.0 43.1 113.4 110.6 381.8
03/09 14:00 17.8 69 10.47 12 22 35 1016 0.4 23.4 27.8 45.3 119.2 117.9 407.3
03/09 13:50 17.6 70 10.5 12.1 24 35 1016.1 0.4 23.4 28.0 45.6 119.9 118.6 409.7
03/09 13:40 17.7 71 10.71 12.4 26 33 1016.2 0.4 23.9 28.3 46.4 122.0 121.3 419.1
03/09 13:30 17.5 75 11.18 13 20 30 1016.3 0.4 24.9 29.1 48.5 127.6 128.1 442.6
03/09 13:20 17.2 76 11.13 12.9 17 24 1016.6 0.4 24.8 29.2 48.5 127.5 127.9 442.0
03/09 13:10 17.4 75 11.11 12.9 20 28 1016.7 0.4 24.7 29.1 48.2 127.0 127.3 440.0
03/09 13:00 17.3 75 11.05 12.8 20 30 1016.8 0.4 24.6 29.0 48.1 126.5 126.6 437.7
03/09 12:50 17.1 77 11.21 13 19 28 1017 0.4 25.0 29.3 48.9 128.6 129.2 446.6
03/09 12:40 17.4 80 11.86 13.9 19 26 1017.3 0.4 26.3 30.4 51.5 135.5 137.8 476.6
03/09 12:30 16.7 82 11.65 13.6 22 37 1017.5 0.4 25.9 30.2 51.0 134.4 136.1 470.7
03/09 12:20 16.7 82 11.65 13.6 20 26 1017.6 0.4 25.9 30.3 51.0 134.4 136.1 470.7
03/09 12:10 17 85 12.3 14.5 15 20 1017.7 0.4 27.3 31.3 53.7 141.4 144.8 501.2
03/09 12:00 16.9 86 12.37 14.5 17 22 1017.9 0.4 27.5 31.5 54.0 142.4 146.1 505.4
03/09 11:50 16.7 87 12.36 14.5 17 22 1018 0.4 27.5 31.5 54.2 142.7 146.3 506.3
03/09 11:40 16.4 88 12.28 14.4 19 24 1018.1 0.4 27.3 31.5 54.0 142.3 145.7 504.2
03/09 11:30 16.2 89 12.27 14.4 19 22 1018.1 0.4 27.3 31.5 54.1 142.6 146.0 505.1
03/09 11:20 16.3 90 12.49 14.7 19 24 1018.2 0.4 27.8 31.9 55.0 145.0 149.0 515.6
03/09 11:10 15.8 90 12.11 14.2 20 28 1018.2 0.4 27.0 31.4 53.7 141.4 144.4 499.6
03/09 11:00 15.7 89 11.91 13.9 19 24 1018.4 0.4 26.6 31.1 52.9 139.3 141.7 490.2
03/09 10:50 15.7 88 11.77 13.7 17 22 1018.4 0.2 26.3 30.8 52.3 137.6 139.7 483.1
03/09 10:40 16.1 88 12.06 14.1 17 22 1018.5 0.2 26.9 31.2 53.3 140.3 143.2 495.2
03/09 10:30 15.9 87 11.78 13.7 15 20 1018.5 0.2 26.3 30.8 52.2 137.4 139.5 482.4
03/09 10:20 15.5 88 11.63 13.5 17 20 1018.7 0.2 26.0 30.7 51.8 136.4 138.1 477.5
03/09 10:10 15.5 87 11.5 13.3 15 20 1018.9 0.2 25.7 30.5 51.2 134.9 136.3 471.0
03/09 10:00 15.6 87 11.57 13.4 15 20 1018.9 0.2 25.8 30.5 51.5 135.5 137.1 473.9
03/09 09:50 15.3 87 11.36 13.2 15 22 1019 0 25.4 30.3 50.8 133.6 134.6 465.3
03/09 09:40 15.3 88 11.49 13.3 17 22 1019.2 0 25.7 30.5 51.3 135.2 136.5 471.9
03/09 09:30 15.5 87 11.5 13.3 17 20 1019.3 0 25.7 30.5 51.3 135.0 136.3 471.2
03/09 09:20 15.5 87 11.5 13.3 17 22 1019.3 0 25.7 30.5 51.3 135.0 136.3 471.2
03/09 09:10 15.4 86 11.3 13.1 17 22 1019.2 0 25.3 30.2 50.4 132.8 133.6 461.8
03/09 09:00 15.3 86 11.23 13 19 22 1019.3 0 25.1 30.1 50.2 132.2 132.8 458.9
03/09 08:50 15.4 87 11.43 13.2 19 24 1019.4 2 25.5 30.4 51.0 134.3 135.5 468.3
03/09 08:40 15.4 87 11.43 13.2 19 24 1019.3 2 25.6 30.4 51.0 134.3 135.5 468.3
03/09 08:30 15.2 88 11.42 13.2 19 24 1019.3 2 25.5 30.4 51.1 134.6 135.7 469.0

Last Refresh: 04-Sep-2026 02:41:31

Bureau of Meteorology